sensor_id;sensor_type;location;lat;lon;timestamp;P1;durP1;ratioP1;P2;durP2;ratioP2
15608;SDS011;64278;45.642;13.756;2023-04-24T00:00:55;20.25;;;18.38;;
15608;SDS011;64278;45.642;13.756;2023-04-24T00:03:24;21.45;;;19.35;;
15608;SDS011;64278;45.642;13.756;2023-04-24T00:05:51;20.10;;;18.33;;
15608;SDS011;64278;45.642;13.756;2023-04-24T00:08:17;20.33;;;18.45;;
15608;SDS011;64278;45.642;13.756;2023-04-24T00:10:43;20.00;;;17.92;;
15608;SDS011;64278;45.642;13.756;2023-04-24T00:13:08;18.85;;;17.15;;
15608;SDS011;64278;45.642;13.756;2023-04-24T00:15:34;18.40;;;16.58;;
15608;SDS011;64278;45.642;13.756;2023-04-24T00:18:00;18.67;;;16.92;;
15608;SDS011;64278;45.642;13.756;2023-04-24T00:20:26;19.52;;;17.58;;
15608;SDS011;64278;45.642;13.756;2023-04-24T00:22:54;17.95;;;16.35;;
15608;SDS011;64278;45.642;13.756;2023-04-24T00:25:20;17.05;;;15.45;;
15608;SDS011;64278;45.642;13.756;2023-04-24T00:27:46;16.50;;;15.10;;
15608;SDS011;64278;45.642;13.756;2023-04-24T00:30:11;17.33;;;15.63;;
15608;SDS011;64278;45.642;13.756;2023-04-24T00:32:37;15.52;;;14.13;;
15608;SDS011;64278;45.642;13.756;2023-04-24T00:35:03;15.35;;;14.00;;
15608;SDS011;64278;45.642;13.756;2023-04-24T00:37:29;15.90;;;14.50;;
15608;SDS011;64278;45.642;13.756;2023-04-24T00:39:55;15.88;;;14.38;;
15608;SDS011;64278;45.642;13.756;2023-04-24T00:42:20;14.70;;;13.40;;
15608;SDS011;64278;45.642;13.756;2023-04-24T00:44:46;15.77;;;14.32;;
15608;SDS011;64278;45.642;13.756;2023-04-24T00:47:12;14.63;;;13.32;;
15608;SDS011;64278;45.642;13.756;2023-04-24T00:49:38;13.88;;;12.65;;
15608;SDS011;64278;45.642;13.756;2023-04-24T00:52:04;14.07;;;12.88;;
15608;SDS011;64278;45.642;13.756;2023-04-24T00:54:32;13.55;;;12.35;;
15608;SDS011;64278;45.642;13.756;2023-04-24T00:56:58;13.63;;;12.43;;
15608;SDS011;64278;45.642;13.756;2023-04-24T00:59:24;13.88;;;12.68;;
15608;SDS011;64278;45.642;13.756;2023-04-24T01:01:49;13.30;;;12.07;;
15608;SDS011;64278;45.642;13.756;2023-04-24T01:04:16;13.27;;;12.10;;
15608;SDS011;64278;45.642;13.756;2023-04-24T01:06:42;12.98;;;11.77;;
15608;SDS011;64278;45.642;13.756;2023-04-24T01:09:10;13.43;;;12.32;;
15608;SDS011;64278;45.642;13.756;2023-04-24T01:11:37;12.25;;;11.20;;
15608;SDS011;64278;45.642;13.756;2023-04-24T01:14:03;12.48;;;11.48;;
15608;SDS011;64278;45.642;13.756;2023-04-24T01:16:29;11.90;;;10.90;;
15608;SDS011;64278;45.642;13.756;2023-04-24T01:18:54;11.45;;;10.45;;
15608;SDS011;64278;45.642;13.756;2023-04-24T01:21:20;12.98;;;11.68;;
15608;SDS011;64278;45.642;13.756;2023-04-24T01:23:48;12.82;;;11.63;;
15608;SDS011;64278;45.642;13.756;2023-04-24T01:26:15;12.45;;;11.27;;
15608;SDS011;64278;45.642;13.756;2023-04-24T01:28:42;11.23;;;10.27;;
15608;SDS011;64278;45.642;13.756;2023-04-24T01:31:08;11.30;;;10.30;;
15608;SDS011;64278;45.642;13.756;2023-04-24T01:33:34;11.55;;;10.55;;
15608;SDS011;64278;45.642;13.756;2023-04-24T01:36:00;10.90;;;9.90;;
15608;SDS011;64278;45.642;13.756;2023-04-24T01:38:26;11.48;;;10.48;;
15608;SDS011;64278;45.642;13.756;2023-04-24T01:40:52;10.45;;;9.45;;
15608;SDS011;64278;45.642;13.756;2023-04-24T01:43:18;10.93;;;9.93;;
15608;SDS011;64278;45.642;13.756;2023-04-24T01:45:44;12.00;;;10.15;;
15608;SDS011;64278;45.642;13.756;2023-04-24T01:48:11;11.00;;;10.00;;
15608;SDS011;64278;45.642;13.756;2023-04-24T01:50:37;10.52;;;9.63;;
15608;SDS011;64278;45.642;13.756;2023-04-24T01:53:03;9.80;;;8.88;;
15608;SDS011;64278;45.642;13.756;2023-04-24T01:55:29;11.32;;;10.32;;
15608;SDS011;64278;45.642;13.756;2023-04-24T01:57:55;10.18;;;9.32;;
15608;SDS011;64278;45.642;13.756;2023-04-24T02:00:21;10.30;;;9.43;;
15608;SDS011;64278;45.642;13.756;2023-04-24T02:02:47;11.38;;;9.95;;
15608;SDS011;64278;45.642;13.756;2023-04-24T02:05:13;10.05;;;9.18;;
15608;SDS011;64278;45.642;13.756;2023-04-24T02:07:39;9.32;;;8.55;;
15608;SDS011;64278;45.642;13.756;2023-04-24T02:10:05;9.35;;;8.55;;
15608;SDS011;64278;45.642;13.756;2023-04-24T02:12:31;9.18;;;8.48;;
15608;SDS011;64278;45.642;13.756;2023-04-24T02:14:56;8.95;;;8.25;;
15608;SDS011;64278;45.642;13.756;2023-04-24T02:17:23;9.30;;;8.52;;
15608;SDS011;64278;45.642;13.756;2023-04-24T02:19:48;8.93;;;8.02;;
15608;SDS011;64278;45.642;13.756;2023-04-24T02:22:14;8.88;;;8.05;;
15608;SDS011;64278;45.642;13.756;2023-04-24T02:24:40;10.10;;;9.20;;
15608;SDS011;64278;45.642;13.756;2023-04-24T02:27:06;8.85;;;8.13;;
15608;SDS011;64278;45.642;13.756;2023-04-24T02:29:32;9.10;;;8.30;;
15608;SDS011;64278;45.642;13.756;2023-04-24T02:31:57;9.40;;;8.50;;
15608;SDS011;64278;45.642;13.756;2023-04-24T02:34:23;8.30;;;7.50;;
15608;SDS011;64278;45.642;13.756;2023-04-24T02:36:49;8.50;;;7.65;;
15608;SDS011;64278;45.642;13.756;2023-04-24T02:39:15;7.47;;;6.88;;
15608;SDS011;64278;45.642;13.756;2023-04-24T02:41:43;8.88;;;8.07;;
15608;SDS011;64278;45.642;13.756;2023-04-24T02:44:09;8.40;;;7.60;;
15608;SDS011;64278;45.642;13.756;2023-04-24T02:46:35;8.45;;;7.65;;
15608;SDS011;64278;45.642;13.756;2023-04-24T02:49:00;8.27;;;7.57;;
15608;SDS011;64278;45.642;13.756;2023-04-24T02:51:26;8.30;;;7.60;;
15608;SDS011;64278;45.642;13.756;2023-04-24T02:53:52;8.15;;;7.45;;
15608;SDS011;64278;45.642;13.756;2023-04-24T02:56:18;7.85;;;7.25;;
15608;SDS011;64278;45.642;13.756;2023-04-24T02:58:43;9.55;;;8.65;;
15608;SDS011;64278;45.642;13.756;2023-04-24T03:01:09;7.65;;;7.05;;
15608;SDS011;64278;45.642;13.756;2023-04-24T03:03:35;8.05;;;7.45;;
15608;SDS011;64278;45.642;13.756;2023-04-24T03:06:02;8.13;;;7.53;;
15608;SDS011;64278;45.642;13.756;2023-04-24T03:08:30;7.50;;;6.90;;
15608;SDS011;64278;45.642;13.756;2023-04-24T03:10:56;7.35;;;6.75;;
15608;SDS011;64278;45.642;13.756;2023-04-24T03:13:22;7.90;;;7.20;;
15608;SDS011;64278;45.642;13.756;2023-04-24T03:15:48;7.25;;;6.70;;
15608;SDS011;64278;45.642;13.756;2023-04-24T03:18:13;7.95;;;7.25;;
15608;SDS011;64278;45.642;13.756;2023-04-24T03:20:39;7.53;;;6.82;;
15608;SDS011;64278;45.642;13.756;2023-04-24T03:23:05;7.38;;;6.78;;
15608;SDS011;64278;45.642;13.756;2023-04-24T03:25:30;6.68;;;6.07;;
15608;SDS011;64278;45.642;13.756;2023-04-24T03:27:56;7.25;;;6.65;;
15608;SDS011;64278;45.642;13.756;2023-04-24T03:30:21;7.25;;;6.65;;
15608;SDS011;64278;45.642;13.756;2023-04-24T03:32:47;6.80;;;6.20;;
15608;SDS011;64278;45.642;13.756;2023-04-24T03:35:13;6.57;;;5.97;;
15608;SDS011;64278;45.642;13.756;2023-04-24T03:37:39;6.32;;;5.82;;
15608;SDS011;64278;45.642;13.756;2023-04-24T03:40:04;6.80;;;6.30;;
15608;SDS011;64278;45.642;13.756;2023-04-24T03:42:32;7.80;;;7.07;;
15608;SDS011;64278;45.642;13.756;2023-04-24T03:44:57;7.30;;;6.65;;
15608;SDS011;64278;45.642;13.756;2023-04-24T03:47:23;7.47;;;6.78;;
15608;SDS011;64278;45.642;13.756;2023-04-24T03:49:49;5.82;;;5.38;;
15608;SDS011;64278;45.642;13.756;2023-04-24T03:52:15;6.35;;;5.85;;
15608;SDS011;64278;45.642;13.756;2023-04-24T03:54:40;6.60;;;6.10;;
15608;SDS011;64278;45.642;13.756;2023-04-24T03:57:06;5.82;;;5.43;;
15608;SDS011;64278;45.642;13.756;2023-04-24T03:59:32;6.47;;;5.90;;
15608;SDS011;64278;45.642;13.756;2023-04-24T04:01:57;6.38;;;5.88;;
15608;SDS011;64278;45.642;13.756;2023-04-24T04:04:23;6.53;;;6.00;;
15608;SDS011;64278;45.642;13.756;2023-04-24T04:06:48;6.63;;;6.07;;
15608;SDS011;64278;45.642;13.756;2023-04-24T04:09:14;6.00;;;5.60;;
15608;SDS011;64278;45.642;13.756;2023-04-24T04:11:40;6.22;;;5.70;;
15608;SDS011;64278;45.642;13.756;2023-04-24T04:14:06;6.63;;;6.13;;
15608;SDS011;64278;45.642;13.756;2023-04-24T04:16:31;5.65;;;5.25;;
15608;SDS011;64278;45.642;13.756;2023-04-24T04:18:57;5.60;;;5.20;;
15608;SDS011;64278;45.642;13.756;2023-04-24T04:21:23;6.10;;;5.60;;
15608;SDS011;64278;45.642;13.756;2023-04-24T04:23:49;6.60;;;6.10;;
15608;SDS011;64278;45.642;13.756;2023-04-24T04:26:15;6.53;;;5.93;;
15608;SDS011;64278;45.642;13.756;2023-04-24T04:28:40;6.38;;;5.82;;
15608;SDS011;64278;45.642;13.756;2023-04-24T04:31:06;5.50;;;5.00;;
15608;SDS011;64278;45.642;13.756;2023-04-24T04:33:32;5.57;;;5.07;;
15608;SDS011;64278;45.642;13.756;2023-04-24T04:35:59;5.82;;;5.32;;
15608;SDS011;64278;45.642;13.756;2023-04-24T04:38:25;6.05;;;5.55;;
15608;SDS011;64278;45.642;13.756;2023-04-24T04:40:55;5.68;;;5.25;;
15608;SDS011;64278;45.642;13.756;2023-04-24T04:43:23;6.22;;;5.72;;
15608;SDS011;64278;45.642;13.756;2023-04-24T04:45:49;5.47;;;5.05;;
15608;SDS011;64278;45.642;13.756;2023-04-24T04:48:16;6.47;;;5.82;;
15608;SDS011;64278;45.642;13.756;2023-04-24T04:50:42;6.85;;;6.35;;
15608;SDS011;64278;45.642;13.756;2023-04-24T04:53:08;5.63;;;5.15;;
15608;SDS011;64278;45.642;13.756;2023-04-24T04:55:34;5.45;;;5.05;;
15608;SDS011;64278;45.642;13.756;2023-04-24T04:58:00;5.55;;;5.18;;
15608;SDS011;64278;45.642;13.756;2023-04-24T05:00:25;5.10;;;4.72;;
15608;SDS011;64278;45.642;13.756;2023-04-24T05:02:52;5.95;;;5.45;;
15608;SDS011;64278;45.642;13.756;2023-04-24T05:05:18;5.88;;;5.47;;
15608;SDS011;64278;45.642;13.756;2023-04-24T05:07:44;5.45;;;4.93;;
15608;SDS011;64278;45.642;13.756;2023-04-24T05:10:10;6.03;;;5.25;;
15608;SDS011;64278;45.642;13.756;2023-04-24T05:12:36;5.25;;;4.85;;
15608;SDS011;64278;45.642;13.756;2023-04-24T05:15:02;5.00;;;4.60;;
15608;SDS011;64278;45.642;13.756;2023-04-24T05:17:28;5.45;;;4.95;;
15608;SDS011;64278;45.642;13.756;2023-04-24T05:19:54;6.22;;;5.63;;
15608;SDS011;64278;45.642;13.756;2023-04-24T05:22:20;5.40;;;4.93;;
15608;SDS011;64278;45.642;13.756;2023-04-24T05:24:46;5.28;;;4.88;;
15608;SDS011;64278;45.642;13.756;2023-04-24T05:27:12;5.38;;;4.88;;
15608;SDS011;64278;45.642;13.756;2023-04-24T05:29:38;4.78;;;4.47;;
15608;SDS011;64278;45.642;13.756;2023-04-24T05:32:03;4.32;;;4.03;;
15608;SDS011;64278;45.642;13.756;2023-04-24T05:34:29;5.18;;;4.75;;
15608;SDS011;64278;45.642;13.756;2023-04-24T05:36:55;5.60;;;5.20;;
15608;SDS011;64278;45.642;13.756;2023-04-24T05:39:21;4.95;;;4.55;;
15608;SDS011;64278;45.642;13.756;2023-04-24T05:41:46;5.38;;;4.97;;
15608;SDS011;64278;45.642;13.756;2023-04-24T05:44:12;4.97;;;4.68;;
15608;SDS011;64278;45.642;13.756;2023-04-24T05:46:38;5.25;;;4.85;;
15608;SDS011;64278;45.642;13.756;2023-04-24T05:49:03;4.75;;;4.45;;
15608;SDS011;64278;45.642;13.756;2023-04-24T05:51:29;4.82;;;4.53;;
15608;SDS011;64278;45.642;13.756;2023-04-24T05:53:56;4.20;;;3.90;;
15608;SDS011;64278;45.642;13.756;2023-04-24T05:56:22;4.78;;;4.38;;
15608;SDS011;64278;45.642;13.756;2023-04-24T05:58:48;5.10;;;4.70;;
15608;SDS011;64278;45.642;13.756;2023-04-24T06:01:13;4.85;;;4.55;;
15608;SDS011;64278;45.642;13.756;2023-04-24T06:03:39;4.47;;;4.18;;
15608;SDS011;64278;45.642;13.756;2023-04-24T06:06:06;4.97;;;4.57;;
15608;SDS011;64278;45.642;13.756;2023-04-24T06:08:32;4.40;;;4.10;;
15608;SDS011;64278;45.642;13.756;2023-04-24T06:10:58;4.93;;;4.53;;
15608;SDS011;64278;45.642;13.756;2023-04-24T06:13:24;4.25;;;3.90;;
15608;SDS011;64278;45.642;13.756;2023-04-24T06:15:50;4.55;;;4.15;;
15608;SDS011;64278;45.642;13.756;2023-04-24T06:18:16;4.78;;;4.38;;
15608;SDS011;64278;45.642;13.756;2023-04-24T06:20:42;5.22;;;4.72;;
15608;SDS011;64278;45.642;13.756;2023-04-24T06:23:08;4.60;;;4.20;;
15608;SDS011;64278;45.642;13.756;2023-04-24T06:25:34;4.35;;;4.05;;
15608;SDS011;64278;45.642;13.756;2023-04-24T06:28:00;4.82;;;4.35;;
15608;SDS011;64278;45.642;13.756;2023-04-24T06:30:26;4.82;;;4.43;;
15608;SDS011;64278;45.642;13.756;2023-04-24T06:32:53;4.85;;;4.40;;
15608;SDS011;64278;45.642;13.756;2023-04-24T06:35:18;4.30;;;4.00;;
15608;SDS011;64278;45.642;13.756;2023-04-24T06:37:44;5.97;;;4.88;;
15608;SDS011;64278;45.642;13.756;2023-04-24T06:40:10;4.90;;;4.50;;
15608;SDS011;64278;45.642;13.756;2023-04-24T06:42:36;4.43;;;4.13;;
15608;SDS011;64278;45.642;13.756;2023-04-24T06:45:02;5.68;;;4.80;;
15608;SDS011;64278;45.642;13.756;2023-04-24T06:47:28;5.70;;;5.15;;
15608;SDS011;64278;45.642;13.756;2023-04-24T06:49:54;5.28;;;4.63;;
15608;SDS011;64278;45.642;13.756;2023-04-24T06:52:20;6.82;;;5.40;;
15608;SDS011;64278;45.642;13.756;2023-04-24T06:54:46;5.43;;;4.93;;
15608;SDS011;64278;45.642;13.756;2023-04-24T06:57:12;4.68;;;4.28;;
15608;SDS011;64278;45.642;13.756;2023-04-24T06:59:37;5.95;;;5.35;;
15608;SDS011;64278;45.642;13.756;2023-04-24T07:02:03;6.53;;;4.80;;
15608;SDS011;64278;45.642;13.756;2023-04-24T07:04:29;7.50;;;4.65;;
15608;SDS011;64278;45.642;13.756;2023-04-24T07:06:55;6.00;;;4.85;;
15608;SDS011;64278;45.642;13.756;2023-04-24T07:09:23;4.88;;;4.40;;
15608;SDS011;64278;45.642;13.756;2023-04-24T07:11:53;5.93;;;5.10;;
15608;SDS011;64278;45.642;13.756;2023-04-24T07:14:19;7.15;;;4.47;;
15608;SDS011;64278;45.642;13.756;2023-04-24T07:16:45;6.05;;;4.97;;
15608;SDS011;64278;45.642;13.756;2023-04-24T07:19:11;4.85;;;4.45;;
15608;SDS011;64278;45.642;13.756;2023-04-24T07:21:37;6.00;;;4.50;;
15608;SDS011;64278;45.642;13.756;2023-04-24T07:24:03;5.28;;;4.78;;
15608;SDS011;64278;45.642;13.756;2023-04-24T07:26:29;5.50;;;4.90;;
15608;SDS011;64278;45.642;13.756;2023-04-24T07:28:55;5.72;;;5.20;;
15608;SDS011;64278;45.642;13.756;2023-04-24T07:31:21;5.28;;;4.78;;
15608;SDS011;64278;45.642;13.756;2023-04-24T07:33:47;5.18;;;4.65;;
15608;SDS011;64278;45.642;13.756;2023-04-24T07:36:13;4.93;;;4.50;;
15608;SDS011;64278;45.642;13.756;2023-04-24T07:38:47;4.95;;;4.45;;
15608;SDS011;64278;45.642;13.756;2023-04-24T07:41:13;5.30;;;4.68;;
15608;SDS011;64278;45.642;13.756;2023-04-24T07:43:39;4.63;;;4.22;;
15608;SDS011;64278;45.642;13.756;2023-04-24T07:46:05;5.18;;;4.68;;
15608;SDS011;64278;45.642;13.756;2023-04-24T07:48:31;4.80;;;4.28;;
15608;SDS011;64278;45.642;13.756;2023-04-24T07:50:57;5.60;;;4.50;;
15608;SDS011;64278;45.642;13.756;2023-04-24T07:53:23;4.68;;;4.28;;
15608;SDS011;64278;45.642;13.756;2023-04-24T07:55:49;4.75;;;4.35;;
15608;SDS011;64278;45.642;13.756;2023-04-24T07:58:14;5.10;;;4.57;;
15608;SDS011;64278;45.642;13.756;2023-04-24T08:00:40;6.40;;;4.60;;
15608;SDS011;64278;45.642;13.756;2023-04-24T08:03:06;5.07;;;4.57;;
15608;SDS011;64278;45.642;13.756;2023-04-24T08:05:31;4.43;;;4.13;;
15608;SDS011;64278;45.642;13.756;2023-04-24T08:07:58;4.93;;;4.53;;
15608;SDS011;64278;45.642;13.756;2023-04-24T08:10:24;4.50;;;4.05;;
15608;SDS011;64278;45.642;13.756;2023-04-24T08:12:50;4.68;;;4.38;;
15608;SDS011;64278;45.642;13.756;2023-04-24T08:15:16;5.07;;;4.68;;
15608;SDS011;64278;45.642;13.756;2023-04-24T08:17:42;4.55;;;4.20;;
15608;SDS011;64278;45.642;13.756;2023-04-24T08:20:08;4.72;;;4.32;;
15608;SDS011;64278;45.642;13.756;2023-04-24T08:22:38;4.60;;;4.20;;
15608;SDS011;64278;45.642;13.756;2023-04-24T08:25:09;5.25;;;4.75;;
15608;SDS011;64278;45.642;13.756;2023-04-24T08:27:35;5.10;;;4.25;;
15608;SDS011;64278;45.642;13.756;2023-04-24T08:30:02;5.03;;;4.53;;
15608;SDS011;64278;45.642;13.756;2023-04-24T08:32:28;4.32;;;4.03;;
15608;SDS011;64278;45.642;13.756;2023-04-24T08:34:57;4.57;;;4.18;;
15608;SDS011;64278;45.642;13.756;2023-04-24T08:37:25;4.60;;;4.20;;
15608;SDS011;64278;45.642;13.756;2023-04-24T08:39:51;5.53;;;4.25;;
15608;SDS011;64278;45.642;13.756;2023-04-24T08:42:18;4.60;;;4.20;;
15608;SDS011;64278;45.642;13.756;2023-04-24T08:44:44;4.65;;;4.30;;
15608;SDS011;64278;45.642;13.756;2023-04-24T08:47:11;4.32;;;3.97;;
15608;SDS011;64278;45.642;13.756;2023-04-24T08:49:37;4.70;;;4.35;;
15608;SDS011;64278;45.642;13.756;2023-04-24T08:52:04;4.63;;;4.20;;
15608;SDS011;64278;45.642;13.756;2023-04-24T08:54:31;4.07;;;3.78;;
15608;SDS011;64278;45.642;13.756;2023-04-24T08:56:59;4.40;;;4.00;;
15608;SDS011;64278;45.642;13.756;2023-04-24T08:59:31;4.72;;;4.32;;
15608;SDS011;64278;45.642;13.756;2023-04-24T09:01:58;4.93;;;4.22;;
15608;SDS011;64278;45.642;13.756;2023-04-24T09:04:25;4.68;;;4.15;;
15608;SDS011;64278;45.642;13.756;2023-04-24T09:06:55;4.75;;;4.20;;
15608;SDS011;64278;45.642;13.756;2023-04-24T09:09:22;4.70;;;4.30;;
15608;SDS011;64278;45.642;13.756;2023-04-24T09:11:49;4.30;;;3.95;;
15608;SDS011;64278;45.642;13.756;2023-04-24T09:14:16;4.53;;;3.90;;
15608;SDS011;64278;45.642;13.756;2023-04-24T09:16:43;4.40;;;3.90;;
15608;SDS011;64278;45.642;13.756;2023-04-24T09:19:08;4.57;;;4.18;;
15608;SDS011;64278;45.642;13.756;2023-04-24T09:21:34;5.15;;;4.60;;
15608;SDS011;64278;45.642;13.756;2023-04-24T09:24:01;4.90;;;4.38;;
15608;SDS011;64278;45.642;13.756;2023-04-24T09:26:39;5.72;;;5.15;;
15608;SDS011;64278;45.642;13.756;2023-04-24T09:29:04;5.20;;;4.70;;
15608;SDS011;64278;45.642;13.756;2023-04-24T09:31:30;6.28;;;4.90;;
15608;SDS011;64278;45.642;13.756;2023-04-24T09:34:00;8.85;;;5.40;;
15608;SDS011;64278;45.642;13.756;2023-04-24T09:36:34;6.78;;;5.53;;
15608;SDS011;64278;45.642;13.756;2023-04-24T09:39:06;6.60;;;4.95;;
15608;SDS011;64278;45.642;13.756;2023-04-24T09:44:16;8.18;;;5.75;;
15608;SDS011;64278;45.642;13.756;2023-04-24T09:46:43;7.75;;;5.53;;
15608;SDS011;64278;45.642;13.756;2023-04-24T09:49:12;6.90;;;5.38;;
15608;SDS011;64278;45.642;13.756;2023-04-24T09:51:40;6.30;;;5.00;;
15608;SDS011;64278;45.642;13.756;2023-04-24T09:54:19;9.00;;;4.90;;
15608;SDS011;64278;45.642;13.756;2023-04-24T09:56:47;5.35;;;4.85;;
15608;SDS011;64278;45.642;13.756;2023-04-24T09:59:14;7.05;;;5.20;;
15608;SDS011;64278;45.642;13.756;2023-04-24T10:01:42;8.68;;;5.45;;
15608;SDS011;64278;45.642;13.756;2023-04-24T10:04:25;6.40;;;4.65;;
15608;SDS011;64278;45.642;13.756;2023-04-24T10:06:54;7.05;;;5.70;;
15608;SDS011;64278;45.642;13.756;2023-04-24T10:09:21;6.05;;;4.93;;
15608;SDS011;64278;45.642;13.756;2023-04-24T10:11:51;8.20;;;5.05;;
15608;SDS011;64278;45.642;13.756;2023-04-24T10:14:19;7.22;;;4.95;;
15608;SDS011;64278;45.642;13.756;2023-04-24T10:16:49;5.10;;;4.60;;
15608;SDS011;64278;45.642;13.756;2023-04-24T10:19:17;6.90;;;5.00;;
15608;SDS011;64278;45.642;13.756;2023-04-24T10:21:45;6.22;;;4.57;;
15608;SDS011;64278;45.642;13.756;2023-04-24T10:24:15;5.63;;;4.32;;
15608;SDS011;64278;45.642;13.756;2023-04-24T10:26:42;6.80;;;4.45;;
15608;SDS011;64278;45.642;13.756;2023-04-24T10:29:10;4.82;;;4.35;;
15608;SDS011;64278;45.642;13.756;2023-04-24T10:31:37;6.18;;;4.47;;
15608;SDS011;64278;45.642;13.756;2023-04-24T10:34:04;5.05;;;4.55;;
15608;SDS011;64278;45.642;13.756;2023-04-24T10:36:31;7.63;;;4.05;;
15608;SDS011;64278;45.642;13.756;2023-04-24T10:38:59;5.50;;;3.90;;
15608;SDS011;64278;45.642;13.756;2023-04-24T10:41:27;4.82;;;4.32;;
15608;SDS011;64278;45.642;13.756;2023-04-24T10:47:01;3.63;;;3.40;;
15608;SDS011;64278;45.642;13.756;2023-04-24T10:49:29;8.20;;;4.70;;
15608;SDS011;64278;45.642;13.756;2023-04-24T10:51:59;4.78;;;3.78;;
15608;SDS011;64278;45.642;13.756;2023-04-24T10:59:45;4.63;;;3.35;;
15608;SDS011;64278;45.642;13.756;2023-04-24T11:02:11;4.25;;;3.88;;
15608;SDS011;64278;45.642;13.756;2023-04-24T11:04:40;3.75;;;3.35;;
15608;SDS011;64278;45.642;13.756;2023-04-24T11:07:08;5.43;;;3.47;;
15608;SDS011;64278;45.642;13.756;2023-04-24T11:09:35;3.22;;;2.97;;
15608;SDS011;64278;45.642;13.756;2023-04-24T11:12:05;4.13;;;3.30;;
15608;SDS011;64278;45.642;13.756;2023-04-24T11:15:15;3.90;;;3.50;;
15608;SDS011;64278;45.642;13.756;2023-04-24T11:17:34;3.78;;;3.47;;
15608;SDS011;64278;45.642;13.756;2023-04-24T11:20:06;5.50;;;4.05;;
15608;SDS011;64278;45.642;13.756;2023-04-24T11:22:34;2.88;;;2.67;;
15608;SDS011;64278;45.642;13.756;2023-04-24T11:25:01;3.58;;;3.28;;
15608;SDS011;64278;45.642;13.756;2023-04-24T11:27:31;3.45;;;3.15;;
15608;SDS011;64278;45.642;13.756;2023-04-24T11:30:04;2.95;;;2.75;;
15608;SDS011;64278;45.642;13.756;2023-04-24T11:32:34;3.42;;;3.13;;
15608;SDS011;64278;45.642;13.756;2023-04-24T11:35:07;3.85;;;3.40;;
15608;SDS011;64278;45.642;13.756;2023-04-24T11:37:42;3.22;;;2.97;;
15608;SDS011;64278;45.642;13.756;2023-04-24T11:40:12;3.55;;;3.25;;
15608;SDS011;64278;45.642;13.756;2023-04-24T11:42:41;2.95;;;2.75;;
15608;SDS011;64278;45.642;13.756;2023-04-24T11:45:15;3.13;;;2.92;;
15608;SDS011;64278;45.642;13.756;2023-04-24T11:47:43;4.07;;;3.70;;
15608;SDS011;64278;45.642;13.756;2023-04-24T11:50:13;3.13;;;2.67;;
15608;SDS011;64278;45.642;13.756;2023-04-24T11:52:42;2.83;;;2.50;;
15608;SDS011;64278;45.642;13.756;2023-04-24T11:55:27;3.20;;;2.97;;
15608;SDS011;64278;45.642;13.756;2023-04-24T11:57:57;3.70;;;2.90;;
15608;SDS011;64278;45.642;13.756;2023-04-24T12:00:25;3.40;;;3.10;;
15608;SDS011;64278;45.642;13.756;2023-04-24T12:03:02;3.92;;;2.78;;
15608;SDS011;64278;45.642;13.756;2023-04-24T12:05:32;3.63;;;2.88;;
15608;SDS011;64278;45.642;13.756;2023-04-24T12:07:58;3.35;;;3.10;;
15608;SDS011;64278;45.642;13.756;2023-04-24T12:10:24;3.35;;;3.05;;
15608;SDS011;64278;45.642;13.756;2023-04-24T12:12:52;3.20;;;2.90;;
15608;SDS011;64278;45.642;13.756;2023-04-24T12:15:19;3.65;;;2.72;;
15608;SDS011;64278;45.642;13.756;2023-04-24T12:17:45;3.58;;;3.25;;
15608;SDS011;64278;45.642;13.756;2023-04-24T12:20:11;2.67;;;2.47;;
15608;SDS011;64278;45.642;13.756;2023-04-24T12:25:11;3.15;;;2.95;;
15608;SDS011;64278;45.642;13.756;2023-04-24T12:27:37;3.40;;;3.10;;
15608;SDS011;64278;45.642;13.756;2023-04-24T12:30:03;3.50;;;3.20;;
15608;SDS011;64278;45.642;13.756;2023-04-24T12:32:30;3.30;;;3.00;;
15608;SDS011;64278;45.642;13.756;2023-04-24T12:34:56;3.50;;;3.05;;
15608;SDS011;64278;45.642;13.756;2023-04-24T12:37:26;3.92;;;2.45;;
15608;SDS011;64278;45.642;13.756;2023-04-24T12:40:01;2.78;;;2.58;;
15608;SDS011;64278;45.642;13.756;2023-04-24T12:42:27;3.10;;;2.80;;
15608;SDS011;64278;45.642;13.756;2023-04-24T12:44:58;4.70;;;3.10;;
15608;SDS011;64278;45.642;13.756;2023-04-24T12:47:30;3.10;;;2.80;;
15608;SDS011;64278;45.642;13.756;2023-04-24T12:49:56;4.13;;;2.92;;
15608;SDS011;64278;45.642;13.756;2023-04-24T12:52:23;4.65;;;3.58;;
15608;SDS011;64278;45.642;13.756;2023-04-24T12:54:51;4.47;;;4.07;;
15608;SDS011;64278;45.642;13.756;2023-04-24T12:57:18;9.15;;;4.47;;
15608;SDS011;64278;45.642;13.756;2023-04-24T12:59:44;3.83;;;3.33;;
15608;SDS011;64278;45.642;13.756;2023-04-24T13:02:10;4.95;;;4.38;;
15608;SDS011;64278;45.642;13.756;2023-04-24T13:04:36;4.63;;;3.80;;
15608;SDS011;64278;45.642;13.756;2023-04-24T13:07:02;4.07;;;3.17;;
15608;SDS011;64278;45.642;13.756;2023-04-24T13:09:28;5.22;;;3.92;;
15608;SDS011;64278;45.642;13.756;2023-04-24T13:11:53;5.85;;;4.20;;
15608;SDS011;64278;45.642;13.756;2023-04-24T13:14:21;5.85;;;3.60;;
15608;SDS011;64278;45.642;13.756;2023-04-24T13:16:47;4.20;;;3.40;;
15608;SDS011;64278;45.642;13.756;2023-04-24T13:19:13;3.92;;;3.20;;
15608;SDS011;64278;45.642;13.756;2023-04-24T13:21:38;4.43;;;3.20;;
15608;SDS011;64278;45.642;13.756;2023-04-24T13:24:04;4.90;;;3.67;;
15608;SDS011;64278;45.642;13.756;2023-04-24T13:26:32;4.00;;;3.60;;
15608;SDS011;64278;45.642;13.756;2023-04-24T13:28:58;5.25;;;3.60;;
15608;SDS011;64278;45.642;13.756;2023-04-24T13:31:24;3.60;;;2.70;;
15608;SDS011;64278;45.642;13.756;2023-04-24T13:33:50;3.50;;;3.03;;
15608;SDS011;64278;45.642;13.756;2023-04-24T13:36:16;5.90;;;2.85;;
15608;SDS011;64278;45.642;13.756;2023-04-24T13:38:44;3.50;;;2.65;;
15608;SDS011;64278;45.642;13.756;2023-04-24T13:41:10;3.72;;;2.88;;
15608;SDS011;64278;45.642;13.756;2023-04-24T13:43:36;3.65;;;3.00;;
15608;SDS011;64278;45.642;13.756;2023-04-24T13:46:01;4.03;;;3.00;;
15608;SDS011;64278;45.642;13.756;2023-04-24T13:48:28;4.00;;;3.05;;
15608;SDS011;64278;45.642;13.756;2023-04-24T13:50:54;3.45;;;2.60;;
15608;SDS011;64278;45.642;13.756;2023-04-24T13:53:20;2.85;;;2.58;;
15608;SDS011;64278;45.642;13.756;2023-04-24T13:55:46;3.22;;;2.72;;
15608;SDS011;64278;45.642;13.756;2023-04-24T13:58:12;4.28;;;2.50;;
15608;SDS011;64278;45.642;13.756;2023-04-24T14:00:38;3.03;;;2.60;;
15608;SDS011;64278;45.642;13.756;2023-04-24T14:03:04;3.30;;;2.65;;
15608;SDS011;64278;45.642;13.756;2023-04-24T14:05:30;3.65;;;3.22;;
15608;SDS011;64278;45.642;13.756;2023-04-24T14:07:55;5.57;;;3.97;;
15608;SDS011;64278;45.642;13.756;2023-04-24T14:10:21;4.45;;;4.15;;
15608;SDS011;64278;45.642;13.756;2023-04-24T14:12:47;4.88;;;4.40;;
15608;SDS011;64278;45.642;13.756;2023-04-24T14:15:13;6.93;;;5.03;;
15608;SDS011;64278;45.642;13.756;2023-04-24T14:17:39;6.35;;;5.75;;
15608;SDS011;64278;45.642;13.756;2023-04-24T14:20:05;8.98;;;5.40;;
15608;SDS011;64278;45.642;13.756;2023-04-24T14:22:31;7.53;;;5.80;;
15608;SDS011;64278;45.642;13.756;2023-04-24T14:24:57;6.05;;;5.45;;
15608;SDS011;64278;45.642;13.756;2023-04-24T14:27:24;6.25;;;5.20;;
15608;SDS011;64278;45.642;13.756;2023-04-24T14:29:50;5.68;;;4.97;;
15608;SDS011;64278;45.642;13.756;2023-04-24T14:32:16;9.43;;;6.13;;
15608;SDS011;64278;45.642;13.756;2023-04-24T14:34:42;6.45;;;5.60;;
15608;SDS011;64278;45.642;13.756;2023-04-24T14:37:08;7.85;;;5.72;;
15608;SDS011;64278;45.642;13.756;2023-04-24T14:39:33;7.05;;;6.15;;
15608;SDS011;64278;45.642;13.756;2023-04-24T14:41:59;8.50;;;5.72;;